createdAt,value
2023-03-22T00:02:49.891Z,23.69
2023-03-22T00:06:50.077Z,23.70
2023-03-22T00:10:50.102Z,23.69
2023-03-22T00:14:50.255Z,23.71
2023-03-22T00:18:50.376Z,23.69
2023-03-22T00:22:50.515Z,23.69
2023-03-22T00:26:50.830Z,23.69
2023-03-22T00:30:50.806Z,23.66
2023-03-22T00:34:50.965Z,23.69
2023-03-22T00:38:51.102Z,23.67
2023-03-22T00:42:51.255Z,23.67
2023-03-22T00:46:51.410Z,23.67
2023-03-22T00:50:51.572Z,23.67
2023-03-22T00:54:51.482Z,23.64
2023-03-22T00:58:51.386Z,23.66
2023-03-22T01:02:51.271Z,23.64
2023-03-22T01:06:51.175Z,23.67
2023-03-22T01:10:51.077Z,23.63
2023-03-22T01:14:51.034Z,23.63
2023-03-22T01:18:50.886Z,23.64
2023-03-22T01:22:51.221Z,23.64
2023-03-22T01:26:50.687Z,23.61
2023-03-22T01:30:50.592Z,23.66
2023-03-22T01:34:50.458Z,23.64
2023-03-22T01:38:50.419Z,23.63
2023-03-22T01:42:50.498Z,23.61
2023-03-22T01:46:50.405Z,23.61
2023-03-22T01:50:50.291Z,23.64
2023-03-22T01:54:50.255Z,23.61
2023-03-22T01:58:50.049Z,23.61
2023-03-22T02:02:49.945Z,23.61
2023-03-22T02:06:49.813Z,23.61
2023-03-22T02:10:49.714Z,23.61
2023-03-22T02:14:49.604Z,23.61
2023-03-22T02:18:49.509Z,23.66
2023-03-22T02:22:49.407Z,23.63
2023-03-22T02:26:49.295Z,23.63
2023-03-22T02:30:49.230Z,23.66
2023-03-22T02:34:49.226Z,23.70
2023-03-22T02:38:49.126Z,23.71
2023-03-22T02:42:49.015Z,23.80
2023-03-22T02:46:48.926Z,23.87
2023-03-22T02:50:48.795Z,23.94
2023-03-22T02:54:48.695Z,24.03
2023-03-22T02:58:48.559Z,24.07
2023-03-22T03:02:48.756Z,24.12
2023-03-22T03:06:48.332Z,24.18
2023-03-22T03:10:48.743Z,24.17
2023-03-22T03:14:48.055Z,24.21
2023-03-22T03:18:48.126Z,24.24
2023-03-22T03:22:48.245Z,24.28
2023-03-22T03:26:48.358Z,24.27
2023-03-22T03:30:48.462Z,24.27
2023-03-22T03:34:48.573Z,24.28
2023-03-22T03:38:48.686Z,24.30
2023-03-22T03:42:48.804Z,24.27
2023-03-22T03:46:48.922Z,24.27
2023-03-22T03:50:49.048Z,24.27
2023-03-22T03:54:49.169Z,24.25
2023-03-22T03:58:49.772Z,24.24
2023-03-22T04:02:49.403Z,24.24
2023-03-22T04:06:49.496Z,24.22
2023-03-22T04:10:49.374Z,24.24
2023-03-22T04:14:49.237Z,24.22
2023-03-22T04:18:49.121Z,24.22
2023-03-22T04:22:48.982Z,24.22
2023-03-22T04:26:48.851Z,24.21
2023-03-22T04:30:48.733Z,24.21
2023-03-22T04:34:48.605Z,24.18
2023-03-22T04:38:48.482Z,24.21
2023-03-22T04:42:48.369Z,24.21
2023-03-22T04:46:48.255Z,24.20
2023-03-22T04:50:48.278Z,24.18
2023-03-22T04:54:48.419Z,24.21
2023-03-22T04:58:48.550Z,24.21
2023-03-22T05:02:48.484Z,24.22
2023-03-22T05:06:48.791Z,24.22
2023-03-22T05:10:48.153Z,24.25
2023-03-22T05:14:48.036Z,24.25
2023-03-22T05:18:47.870Z,24.22
2023-03-22T05:22:47.738Z,24.24
2023-03-22T05:26:47.590Z,24.24
2023-03-22T05:30:47.460Z,24.25
2023-03-22T05:34:47.331Z,24.24
2023-03-22T05:38:47.341Z,24.25
2023-03-22T05:42:47.366Z,24.25
2023-03-22T05:46:47.426Z,24.27
2023-03-22T05:50:47.471Z,24.25
2023-03-22T05:54:47.524Z,24.24
2023-03-22T05:58:47.638Z,24.28
2023-03-22T06:02:47.864Z,24.25
2023-03-22T06:06:47.907Z,24.21
2023-03-22T06:10:48.005Z,24.25
2023-03-22T06:14:48.123Z,24.27
2023-03-22T06:18:48.243Z,24.27
2023-03-22T06:22:48.394Z,24.27
2023-03-22T06:26:48.508Z,24.28
2023-03-22T06:30:48.650Z,24.31
2023-03-22T06:34:48.699Z,24.31
2023-03-22T06:38:48.800Z,24.34
2023-03-22T06:42:48.907Z,24.36
2023-03-22T06:46:49.016Z,24.36
2023-03-22T06:50:49.129Z,24.36
2023-03-22T06:54:49.212Z,24.38
2023-03-22T06:58:49.353Z,24.41
2023-03-22T07:02:51.517Z,24.39
2023-03-22T07:06:49.289Z,24.44
2023-03-22T07:10:49.180Z,24.47
2023-03-22T07:14:49.052Z,24.50
2023-03-22T07:18:48.921Z,24.51
2023-03-22T07:22:48.804Z,24.52
2023-03-22T07:26:48.702Z,24.54
2023-03-22T07:30:48.589Z,24.54
2023-03-22T07:34:48.859Z,24.55
2023-03-22T07:38:48.367Z,24.55
2023-03-22T07:42:48.278Z,24.52
2023-03-22T07:46:48.425Z,24.48
2023-03-22T07:50:48.025Z,24.47
2023-03-22T07:54:48.050Z,24.50
2023-03-22T07:58:48.234Z,24.45
2023-03-22T08:02:48.251Z,24.42
2023-03-22T08:06:48.291Z,24.42
2023-03-22T08:10:48.377Z,24.39
2023-03-22T08:14:48.460Z,24.38
2023-03-22T08:18:49.292Z,24.39
2023-03-22T08:22:48.632Z,24.41
2023-03-22T08:26:48.713Z,24.41
2023-03-22T08:30:48.789Z,24.42
2023-03-22T08:34:48.849Z,24.48
2023-03-22T08:38:48.893Z,24.52
2023-03-22T08:42:48.947Z,24.54
2023-03-22T08:46:48.994Z,24.59
2023-03-22T08:50:49.041Z,24.62
2023-03-22T08:54:49.091Z,24.62
2023-03-22T08:58:49.118Z,24.63
2023-03-22T09:02:49.149Z,24.65
2023-03-22T09:06:49.152Z,24.68
2023-03-22T09:10:49.175Z,24.68
2023-03-22T09:14:49.206Z,24.71
2023-03-22T09:18:49.229Z,24.72
2023-03-22T09:22:49.265Z,24.73
2023-03-22T09:26:50.807Z,24.75
2023-03-22T09:30:49.298Z,24.73
2023-03-22T09:34:49.282Z,24.75
2023-03-22T09:38:49.367Z,24.76
2023-03-22T09:42:49.304Z,24.76
2023-03-22T09:46:49.321Z,24.78
2023-03-22T09:50:49.400Z,24.79
2023-03-22T09:54:52.218Z,24.82
2023-03-22T09:58:49.276Z,24.82
2023-03-22T10:02:49.085Z,24.79
2023-03-22T10:06:48.982Z,24.82
2023-03-22T10:10:48.780Z,24.82
2023-03-22T10:14:48.646Z,24.85
2023-03-22T10:18:48.526Z,24.86
2023-03-22T10:22:48.402Z,24.83
2023-03-22T10:26:48.238Z,24.85
2023-03-22T10:30:48.077Z,24.86
2023-03-22T10:34:47.935Z,24.86
2023-03-22T10:38:47.867Z,24.89
2023-03-22T10:42:47.634Z,24.90
2023-03-22T10:46:47.540Z,24.92
2023-03-22T10:50:47.247Z,24.90
2023-03-22T10:54:47.170Z,24.92
2023-03-22T10:58:47.112Z,24.95
2023-03-22T11:02:47.061Z,24.95
2023-03-22T11:06:46.974Z,24.95
2023-03-22T11:10:46.952Z,24.96
2023-03-22T11:14:46.877Z,24.97
2023-03-22T11:18:46.903Z,24.96
2023-03-22T11:22:46.757Z,24.97
2023-03-22T11:26:46.737Z,24.99
2023-03-22T11:30:46.692Z,25.00
2023-03-22T11:34:46.659Z,25.00
2023-03-22T11:38:48.262Z,25.00
2023-03-22T11:42:46.600Z,25.00
2023-03-22T11:46:46.565Z,25.02
2023-03-22T11:50:46.511Z,25.05
2023-03-22T11:54:46.479Z,25.07
2023-03-22T11:58:46.416Z,25.03
2023-03-22T12:02:46.616Z,25.02
2023-03-22T12:06:46.320Z,25.05
2023-03-22T12:10:46.269Z,25.06
2023-03-22T12:14:46.217Z,25.06
2023-03-22T12:18:46.166Z,25.06
2023-03-22T12:22:46.128Z,25.06
2023-03-22T12:26:46.070Z,25.09
2023-03-22T12:30:46.063Z,25.07
2023-03-22T12:34:45.940Z,25.07
2023-03-22T12:38:45.874Z,25.09
2023-03-22T12:42:51.693Z,25.06
2023-03-22T12:46:46.750Z,25.09
2023-03-22T12:50:45.516Z,25.13
2023-03-22T12:54:45.390Z,25.12
2023-03-22T12:58:45.459Z,25.10
2023-03-22T13:02:45.163Z,25.09
2023-03-22T13:06:44.986Z,25.10
2023-03-22T13:10:44.843Z,25.09
2023-03-22T13:14:44.739Z,25.07
2023-03-22T13:18:44.689Z,25.09
2023-03-22T13:22:44.635Z,25.07
2023-03-22T13:26:44.565Z,25.06
2023-03-22T13:30:44.499Z,25.09
2023-03-22T13:34:44.427Z,25.07
2023-03-22T13:38:44.335Z,25.07
2023-03-22T13:42:44.281Z,25.06
2023-03-22T13:46:44.259Z,25.10
2023-03-22T13:50:44.147Z,25.09
2023-03-22T13:54:44.086Z,25.10
2023-03-22T13:58:44.012Z,25.07
2023-03-22T14:02:44.044Z,25.10
2023-03-22T14:06:43.882Z,25.12
2023-03-22T14:10:44.140Z,25.09
2023-03-22T14:14:44.005Z,25.07
2023-03-22T14:18:51.243Z,25.09
2023-03-22T14:47:44.261Z,25.03
2023-03-22T14:51:44.293Z,25.02
2023-03-22T14:55:44.339Z,25.06
2023-03-22T14:59:44.398Z,25.02
2023-03-22T15:03:44.451Z,24.99
2023-03-22T15:07:44.511Z,24.97
2023-03-22T15:11:44.572Z,24.92
2023-03-22T15:15:44.616Z,24.89
2023-03-22T15:19:44.645Z,24.87
2023-03-22T15:23:44.955Z,24.82
2023-03-22T15:27:45.095Z,24.79
2023-03-22T15:31:45.111Z,24.78
2023-03-22T15:35:45.458Z,24.78
2023-03-22T15:39:45.201Z,24.78
2023-03-22T15:43:45.266Z,24.75
2023-03-22T15:47:45.326Z,24.71
2023-03-22T15:51:45.413Z,24.71
2023-03-22T15:55:45.442Z,24.71
2023-03-22T15:59:45.485Z,24.68
2023-03-22T16:03:45.621Z,24.62
2023-03-22T16:07:45.598Z,24.61
2023-03-22T16:11:45.640Z,24.56
2023-03-22T16:15:45.701Z,24.55
2023-03-22T16:19:45.738Z,24.54
2023-03-22T16:23:45.787Z,24.54
2023-03-22T16:27:45.846Z,24.51
2023-03-22T16:31:51.087Z,24.51
2023-03-22T16:35:47.002Z,24.45
2023-03-22T16:39:46.013Z,24.44
2023-03-22T16:43:46.071Z,24.44
2023-03-22T16:47:46.142Z,24.42
2023-03-22T16:51:46.203Z,24.38
2023-03-22T16:55:46.252Z,24.36
2023-03-22T16:59:46.329Z,24.35
2023-03-22T17:03:46.367Z,24.32
2023-03-22T17:07:46.421Z,24.31
2023-03-22T17:11:46.482Z,24.30
2023-03-22T17:15:46.547Z,24.28
2023-03-22T17:19:46.596Z,24.28
2023-03-22T17:23:46.652Z,24.24
2023-03-22T17:27:46.716Z,24.22
2023-03-22T17:31:53.707Z,24.22
2023-03-22T17:35:47.890Z,24.20
2023-03-22T17:40:27.979Z,24.21
2023-03-22T17:43:48.035Z,24.18
2023-03-22T17:47:49.341Z,24.15
2023-03-22T17:51:47.224Z,24.14
2023-03-22T17:59:47.421Z,24.15
2023-03-22T18:03:47.483Z,24.15
2023-03-22T18:07:58.883Z,24.15
2023-03-22T18:11:48.626Z,24.17
2023-03-22T18:15:47.701Z,24.18
2023-03-22T18:20:07.341Z,24.18
2023-03-22T18:23:48.862Z,24.18
2023-03-22T18:27:47.947Z,24.17
2023-03-22T18:31:48.013Z,24.15
2023-03-22T18:35:48.107Z,24.15
2023-03-22T18:43:49.216Z,24.14
2023-03-22T18:47:48.271Z,24.10
2023-03-22T18:55:54.258Z,24.10
2023-03-22T18:59:50.727Z,24.07
2023-03-22T19:03:48.589Z,24.07
2023-03-22T19:08:02.243Z,24.07
2023-03-22T19:11:49.781Z,24.05
2023-03-22T19:15:50.627Z,24.05
2023-03-22T19:19:48.979Z,24.04
2023-03-22T19:23:49.096Z,24.03
2023-03-22T19:31:49.311Z,23.99
2023-03-22T19:35:49.415Z,24.01
2023-03-22T19:39:52.409Z,24.01
2023-03-22T19:43:50.632Z,24.00
2023-03-22T19:48:02.264Z,24.00
2023-03-22T19:51:50.869Z,24.01
2023-03-22T19:55:49.973Z,24.00
2023-03-22T20:00:11.987Z,24.00
2023-03-22T20:03:51.191Z,24.00
2023-03-22T20:07:50.283Z,24.00
2023-03-22T20:11:50.383Z,23.99
2023-03-22T20:15:50.493Z,23.99
2023-03-22T20:19:50.584Z,24.00
2023-03-22T20:23:50.678Z,24.00
2023-03-22T20:27:57.969Z,24.00
2023-03-22T20:31:51.112Z,23.99
2023-03-22T20:35:51.244Z,23.97
2023-03-22T20:39:51.323Z,23.96
2023-03-22T20:43:51.422Z,23.96
2023-03-22T20:47:51.487Z,23.97
2023-03-22T20:51:51.592Z,23.99
2023-03-22T20:55:51.676Z,24.01
2023-03-22T20:59:51.765Z,23.97
2023-03-22T21:03:51.854Z,24.00
2023-03-22T21:07:51.952Z,24.00
2023-03-22T21:11:52.042Z,23.99
2023-03-22T21:15:52.108Z,23.97
2023-03-22T21:19:52.225Z,24.00
2023-03-22T21:23:52.388Z,23.99
2023-03-22T21:27:52.799Z,23.99
2023-03-22T21:31:52.704Z,23.99
2023-03-22T21:35:52.860Z,24.00
2023-03-22T21:39:53.048Z,23.99
2023-03-22T21:43:53.214Z,23.99
2023-03-22T21:47:53.384Z,24.01
2023-03-22T21:51:53.545Z,23.99
2023-03-22T21:55:53.710Z,24.00
2023-03-22T21:59:53.905Z,24.01
2023-03-22T22:03:54.086Z,23.99
2023-03-22T22:07:54.296Z,23.99
2023-03-22T22:11:54.505Z,23.99
2023-03-22T22:15:54.716Z,23.97
2023-03-22T22:19:54.918Z,23.97
2023-03-22T22:23:55.123Z,23.99
2023-03-22T22:27:55.314Z,23.97
2023-03-22T22:31:55.504Z,24.00
2023-03-22T22:35:55.723Z,23.99
2023-03-22T22:39:55.902Z,24.01
2023-03-22T22:43:56.105Z,24.01
2023-03-22T22:47:56.312Z,24.01
2023-03-22T22:51:56.519Z,24.01
2023-03-22T22:55:57.587Z,24.01
2023-03-22T22:59:56.941Z,24.00
2023-03-22T23:03:57.155Z,24.01
2023-03-22T23:07:57.337Z,24.03
2023-03-22T23:11:57.537Z,24.01
2023-03-22T23:15:57.730Z,24.03
2023-03-22T23:19:57.943Z,24.01
2023-03-22T23:23:58.134Z,24.03
2023-03-22T23:27:58.316Z,24.04
2023-03-22T23:31:58.514Z,24.01
2023-03-22T23:35:58.730Z,24.01
2023-03-22T23:39:58.892Z,24.04
2023-03-22T23:43:59.077Z,24.04
2023-03-22T23:47:59.252Z,24.04
2023-03-22T23:51:59.435Z,24.03
2023-03-22T23:55:59.605Z,24.03
2023-03-22T23:59:59.803Z,24.03
